Time;durP1;ratioP1;P1;durP2;ratioP2;P2;SDS_P1;SDS_P2;PMS_P1;PMS_P2;Temp;Humidity;BMP_temperature;BMP_pressure;BME280_temperature;BME280_humidity;BME280_pressure;Samples;Min_cycle;Max_cycle;Signal;HPM_P1;HPM_P2
2021/01/22 00:01:12;;;;;;;1.25;0.50;;;5.40;99.90;;;;;;5040838;28;20073;-62
2021/01/22 00:10:53;;;;;;;0.40;0.30;;;5.20;99.90;;;;;;5036864;28;20060;-63
2021/01/22 00:13:24;;;;;;;0.30;0.25;;;5.10;99.90;;;;;;5076705;28;20037;-63
2021/01/22 00:15:52;;;;;;;1.52;0.50;;;5.10;99.90;;;;;;5065990;28;20538;-63
2021/01/22 00:18:36;;;;;;;1.30;0.40;;;5.10;99.90;;;;;;5062312;28;20044;-63
2021/01/22 00:28:28;;;;;;;0.35;0.30;;;4.90;99.90;;;;;;5036912;28;20042;-63
2021/01/22 00:30:56;;;;;;;1.23;0.50;;;5.10;99.90;;;;;;5037123;28;20462;-62
2021/01/22 00:33:24;;;;;;;0.95;0.40;;;4.90;99.90;;;;;;5074929;28;20494;-62
2021/01/22 00:43:25;;;;;;;0.43;0.38;;;4.90;99.90;;;;;;5070341;28;20407;-62
2021/01/22 00:46:01;;;;;;;1.15;0.30;;;4.80;99.90;;;;;;5074839;28;20036;-63
2021/01/22 00:48:26;;;;;;;0.77;0.40;;;4.80;99.90;;;;;;5059375;28;20396;-63
2021/01/22 00:50:58;;;;;;;0.52;0.40;;;4.80;99.90;;;;;;5072342;28;20127;-62
2021/01/22 00:54:01;;;;;;;1.00;0.50;;;4.80;99.90;;;;;;5065195;28;20060;-63
2021/01/22 01:01:11;;;;;;;0.40;0.38;;;4.80;99.90;;;;;;5065256;28;20098;-63
2021/01/22 01:03:43;;;;;;;0.32;0.25;;;4.70;99.90;;;;;;5069211;28;20475;-63
2021/01/22 01:06:38;;;;;;;1.30;0.40;;;4.70;99.90;;;;;;5037271;28;20493;-63
2021/01/22 01:13:25;;;;;;;0.98;0.30;;;4.60;99.90;;;;;;5045108;28;20400;-63
2021/01/22 01:15:56;;;;;;;0.60;0.30;;;4.50;99.90;;;;;;5067605;28;20036;-63
2021/01/22 01:18:29;;;;;;;1.23;0.30;;;4.50;99.90;;;;;;5070060;28;20067;-63
2021/01/22 01:20:57;;;;;;;0.45;0.30;;;4.50;99.90;;;;;;5057857;28;20607;-63
2021/01/22 01:23:32;;;;;;;1.67;0.20;;;4.60;99.90;;;;;;5075009;28;20040;-63
2021/01/22 01:26:01;;;;;;;0.25;0.20;;;4.50;99.90;;;;;;5059126;28;20550;-62
2021/01/22 01:28:35;;;;;;;0.55;0.25;;;4.50;99.90;;;;;;5052719;28;20484;-62
2021/01/22 01:31:51;;;;;;;0.40;0.30;;;4.50;99.90;;;;;;5060222;28;20051;-62
2021/01/22 01:38:39;;;;;;;0.20;0.20;;;4.50;99.90;;;;;;5040522;28;20052;-63
2021/01/22 01:41:07;;;;;;;2.22;0.30;;;4.40;99.90;;;;;;5064944;28;20040;-62
2021/01/22 01:43:39;;;;;;;1.25;0.60;;;4.40;99.90;;;;;;5060155;28;20052;-62
2021/01/22 01:46:07;;;;;;;1.63;0.50;;;4.50;99.90;;;;;;5069817;28;20051;-63
2021/01/22 01:48:33;;;;;;;0.40;0.30;;;4.40;99.90;;;;;;5061305;28;20499;-63
2021/01/22 01:51:05;;;;;;;0.43;0.25;;;4.40;99.90;;;;;;5071483;28;20112;-62
2021/01/22 01:53:40;;;;;;;2.00;0.40;;;4.40;99.90;;;;;;5035431;28;20046;-63
2021/01/22 01:56:37;;;;;;;1.23;0.50;;;4.50;99.90;;;;;;5035583;28;20111;-62
2021/01/22 01:59:10;;;;;;;1.30;0.60;;;4.40;99.90;;;;;;5054482;28;20033;-62
2021/01/22 02:01:55;;;;;;;1.00;0.47;;;4.40;99.90;;;;;;5038302;28;20373;-62
2021/01/22 02:04:27;;;;;;;1.40;0.68;;;4.50;99.90;;;;;;5062012;28;20040;-63
2021/01/22 02:11:10;;;;;;;1.95;0.70;;;4.40;99.90;;;;;;5058053;28;20104;-62
2021/01/22 02:21:12;;;;;;;0.57;0.45;;;4.50;99.90;;;;;;5034605;28;20076;-62
2021/01/22 02:23:53;;;;;;;3.13;1.13;;;4.60;99.90;;;;;;5065197;28;20041;-62
2021/01/22 02:26:53;;;;;;;0.55;0.20;;;4.50;99.90;;;;;;5073867;28;20476;-62
2021/01/22 02:29:19;;;;;;;0.50;0.40;;;4.50;99.90;;;;;;5069240;28;20052;-62
2021/01/22 02:31:51;;;;;;;1.15;0.50;;;4.60;99.90;;;;;;5068243;28;20051;-62
2021/01/22 02:38:35;;;;;;;0.20;0.20;;;4.60;99.90;;;;;;5052159;28;20444;-62
2021/01/22 02:41:22;;;;;;;1.38;0.38;;;4.60;99.90;;;;;;5065474;28;20119;-62
2021/01/22 02:47:51;;;;;;;0.35;0.28;;;4.60;99.90;;;;;;5060866;28;20055;-62
2021/01/22 02:51:06;;;;;;;0.65;0.30;;;4.60;99.90;;;;;;5033804;28;20075;-62
2021/01/22 02:53:38;;;;;;;0.20;0.20;;;4.60;99.90;;;;;;5061060;28;20089;-62
2021/01/22 02:56:17;;;;;;;1.02;0.40;;;4.60;99.90;;;;;;5063035;28;20049;-62
2021/01/22 02:59:09;;;;;;;1.48;0.40;;;4.60;99.90;;;;;;5073595;28;20037;-62
2021/01/22 03:02:19;;;;;;;0.30;0.20;;;4.60;99.90;;;;;;5073590;28;20093;-62
2021/01/22 03:08:42;;;;;;;0.50;0.30;;;4.70;99.90;;;;;;5033433;28;20076;-62
2021/01/22 03:11:11;;;;;;;2.88;0.60;;;4.70;99.90;;;;;;5033625;28;20052;-62
2021/01/22 03:13:48;;;;;;;2.70;0.50;;;4.70;99.90;;;;;;5034005;28;20417;-62
2021/01/22 03:16:15;;;;;;;0.73;0.50;;;4.60;99.90;;;;;;5033846;28;20045;-62
2021/01/22 03:19:01;;;;;;;1.20;0.43;;;4.60;99.90;;;;;;5070980;28;20480;-62
2021/01/22 03:28:46;;;;;;;0.68;0.30;;;4.60;99.90;;;;;;5073685;28;20049;-62
2021/01/22 03:31:18;;;;;;;1.80;0.60;;;4.60;99.90;;;;;;5073863;28;20037;-62
2021/01/22 03:33:47;;;;;;;1.98;0.73;;;4.60;99.90;;;;;;5073113;28;20036;-63
2021/01/22 03:36:14;;;;;;;0.55;0.43;;;4.60;99.90;;;;;;5058181;28;20048;-63
2021/01/22 03:38:43;;;;;;;1.63;0.60;;;4.60;99.90;;;;;;5067962;28;20111;-63
2021/01/22 03:41:14;;;;;;;2.83;0.52;;;4.60;99.90;;;;;;5033218;28;20049;-63
2021/01/22 03:43:42;;;;;;;3.22;0.73;;;4.60;99.90;;;;;;5062061;28;20050;-63
2021/01/22 03:46:14;;;;;;;2.08;0.60;;;4.50;99.90;;;;;;5068978;28;20115;-63
2021/01/22 03:48:42;;;;;;;0.65;0.43;;;4.60;99.90;;;;;;5058573;28;20044;-63
2021/01/22 03:51:15;;;;;;;1.02;0.52;;;4.60;99.90;;;;;;5053409;28;20399;-63
2021/01/22 03:53:42;;;;;;;1.42;0.63;;;4.60;99.90;;;;;;5058388;28;20044;-63
2021/01/22 03:56:17;;;;;;;1.52;0.70;;;4.50;99.90;;;;;;5055321;28;20065;-63
2021/01/22 03:58:43;;;;;;;2.13;0.93;;;4.50;99.90;;;;;;5066196;28;20481;-62
2021/01/22 04:01:12;;;;;;;2.53;0.70;;;4.50;99.90;;;;;;5065068;28;20143;-63
2021/01/22 04:03:38;;;;;;;1.77;0.57;;;4.60;99.90;;;;;;5045659;28;20032;-63
2021/01/22 04:13:48;;;;;;;1.13;0.50;;;4.50;99.90;;;;;;5056015;28;20096;-63
2021/01/22 04:16:37;;;;;;;2.80;0.55;;;4.50;99.90;;;;;;5061790;28;20055;-63
2021/01/22 04:26:15;;;;;;;0.93;0.40;;;4.40;99.90;;;;;;5060488;28;20098;-62
2021/01/22 04:29:15;;;;;;;2.17;0.45;;;4.40;99.90;;;;;;5072381;28;20070;-63
2021/01/22 04:38:58;;;;;;;1.98;0.47;;;4.30;99.90;;;;;;5072640;28;20488;-62
2021/01/22 04:41:44;;;;;;;0.73;0.40;;;4.30;99.90;;;;;;5075912;28;20123;-63
2021/01/22 04:44:19;;;;;;;1.55;0.47;;;4.30;99.90;;;;;;5040104;28;20045;-63
2021/01/22 04:51:15;;;;;;;3.80;0.60;;;4.30;99.90;;;;;;5047589;28;20040;-63
2021/01/22 04:53:49;;;;;;;3.13;0.52;;;4.20;99.90;;;;;;5036254;28;20053;-63
2021/01/22 04:56:17;;;;;;;0.88;0.50;;;4.20;99.90;;;;;;5035769;28;20157;-63
2021/01/22 04:58:54;;;;;;;1.45;0.70;;;4.20;99.90;;;;;;5059785;28;20043;-63
2021/01/22 05:01:21;;;;;;;2.88;0.68;;;4.20;99.90;;;;;;5036324;28;20042;-63
2021/01/22 05:04:04;;;;;;;4.43;0.80;;;4.20;99.90;;;;;;5058392;28;20088;-63
2021/01/22 05:06:38;;;;;;;2.58;0.82;;;4.20;99.90;;;;;;5055692;28;20059;-63
2021/01/22 05:09:05;;;;;;;1.63;0.60;;;4.10;99.90;;;;;;5040830;28;20056;-63
2021/01/22 05:11:59;;;;;;;1.45;0.55;;;4.10;99.90;;;;;;5037450;28;20095;-63
2021/01/22 05:14:30;;;;;;;3.40;0.60;;;4.10;99.90;;;;;;5046242;28;20116;-63
2021/01/22 05:17:07;;;;;;;2.55;0.68;;;4.10;99.90;;;;;;5075738;28;20041;-63
2021/01/22 05:19:43;;;;;;;2.03;0.60;;;4.10;99.90;;;;;;5059238;28;20120;-63
2021/01/22 05:22:23;;;;;;;1.55;0.80;;;4.10;99.90;;;;;;5058114;28;20595;-64
2021/01/22 05:28:48;;;;;;;4.00;0.90;;;4.10;99.90;;;;;;5063656;28;20122;-63
2021/01/22 05:31:19;;;;;;;3.13;0.65;;;4.10;99.90;;;;;;5053577;28;20040;-63
2021/01/22 05:34:22;;;;;;;3.35;0.65;;;4.10;99.90;;;;;;5057425;28;20431;-63
2021/01/22 05:41:18;;;;;;;1.77;0.55;;;4.20;99.90;;;;;;5068945;28;20102;-63
2021/01/22 05:51:31;;;;;;;5.28;0.80;;;4.10;99.90;;;;;;5055411;28;20036;-63
2021/01/22 06:02:59;;;;;;;3.70;0.90;;;4.10;99.90;;;;;;5025904;28;20035;-63
2021/01/22 06:06:16;;;;;;;3.05;0.90;;;4.10;99.90;;;;;;5043583;28;20028;-63
2021/01/22 06:08:58;;;;;;;3.38;0.52;;;4.10;99.90;;;;;;5046517;28;20037;-63
2021/01/22 06:26:23;;;;;;;2.88;0.85;;;4.10;99.90;;;;;;5043816;28;20036;-64
2021/01/22 06:28:53;;;;;;;2.60;0.70;;;4.10;99.90;;;;;;5051908;28;20039;-63
2021/01/22 06:31:19;;;;;;;2.60;1.02;;;4.00;99.90;;;;;;5041575;28;20086;-63
2021/01/22 06:33:47;;;;;;;5.07;1.10;;;4.00;99.90;;;;;;5036521;28;20091;-63
2021/01/22 06:36:23;;;;;;;1.60;0.82;;;4.00;99.90;;;;;;5053981;28;20077;-64
2021/01/22 06:39:10;;;;;;;4.20;1.33;;;4.00;99.90;;;;;;5014282;28;20042;-64
2021/01/22 06:41:42;;;;;;;5.00;1.27;;;4.00;99.90;;;;;;5016174;28;20092;-64
2021/01/22 06:44:23;;;;;;;5.10;1.73;;;4.00;99.90;;;;;;5017356;28;20081;-63
2021/01/22 06:47:11;;;;;;;6.75;1.70;;;4.00;99.90;;;;;;5048276;28;20041;-63
2021/01/22 06:53:54;;;;;;;6.47;1.83;;;4.00;99.90;;;;;;5029676;28;20075;-63
2021/01/22 06:56:21;;;;;;;5.40;1.80;;;4.00;99.90;;;;;;5034394;28;20058;-63
2021/01/22 06:58:51;;;;;;;5.00;2.22;;;4.00;99.90;;;;;;5055270;28;20639;-64
2021/01/22 07:01:38;;;;;;;4.95;2.05;;;4.00;99.90;;;;;;5033669;28;20379;-64
2021/01/22 07:11:24;;;;;;;7.72;1.85;;;3.90;99.90;;;;;;5065700;28;20052;-63
2021/01/22 07:13:53;;;;;;;8.55;2.17;;;4.00;99.90;;;;;;5057005;28;20443;-64
2021/01/22 07:16:27;;;;;;;5.07;2.35;;;3.90;99.90;;;;;;5059452;28;20052;-64
2021/01/22 07:19:02;;;;;;;7.40;2.63;;;3.90;99.90;;;;;;5033659;28;20049;-64
2021/01/22 07:28:57;;;;;;;6.53;2.15;;;4.00;99.90;;;;;;5053322;28;20055;-64
2021/01/22 07:32:09;;;;;;;5.13;2.50;;;4.00;99.90;;;;;;5053185;28;20037;-64
2021/01/22 07:38:58;;;;;;;8.32;2.55;;;4.00;99.90;;;;;;5052100;28;20487;-64
2021/01/22 07:41:31;;;;;;;8.05;2.03;;;3.90;99.90;;;;;;5033107;28;20037;-64
2021/01/22 07:44:01;;;;;;;9.00;2.42;;;4.00;99.90;;;;;;5071268;28;20054;-64
2021/01/22 07:46:44;;;;;;;7.10;2.40;;;3.90;99.90;;;;;;5062490;28;20409;-64
2021/01/22 07:49:12;;;;;;;6.18;2.72;;;3.90;99.90;;;;;;5033454;28;20053;-64
2021/01/22 07:55:40;;;;;;;7.28;1.95;;;4.00;99.90;;;;;;5059686;28;20036;-64
2021/01/22 08:09:14;;;;;;;3.72;1.40;;;4.00;99.90;;;;;;5063974;28;20110;-64
2021/01/22 08:15:23;;;;;;;7.00;1.60;;;4.00;99.90;;;;;;5062088;28;20039;-64
2021/01/22 08:21:37;;;;;;;4.82;1.40;;;4.00;99.90;;;;;;5067817;28;20505;-64
2021/01/22 08:24:09;;;;;;;3.45;1.60;;;4.00;99.90;;;;;;5036551;28;20508;-64
2021/01/22 08:26:38;;;;;;;6.70;1.42;;;4.00;99.90;;;;;;5060339;28;20131;-64
2021/01/22 08:29:06;;;;;;;5.00;1.83;;;4.00;99.90;;;;;;5036529;28;20053;-64
2021/01/22 08:31:33;;;;;;;3.78;1.70;;;4.00;99.90;;;;;;5058945;28;20056;-64
2021/01/22 08:34:06;;;;;;;7.70;1.58;;;3.90;99.90;;;;;;5073655;28;20047;-64
2021/01/22 08:36:35;;;;;;;6.20;1.50;;;3.90;99.90;;;;;;5070853;28;20047;-64
2021/01/22 08:39:02;;;;;;;6.80;1.83;;;3.90;99.90;;;;;;5075826;28;20045;-64
2021/01/22 08:41:35;;;;;;;5.25;1.63;;;3.90;99.90;;;;;;5061760;28;20049;-65
2021/01/22 08:51:37;;;;;;;5.60;1.48;;;3.90;99.90;;;;;;5036157;28;20192;-64
2021/01/22 08:54:03;;;;;;;4.65;1.63;;;3.90;99.90;;;;;;5068143;28;20036;-64
2021/01/22 08:56:33;;;;;;;3.70;1.10;;;3.90;99.90;;;;;;5059899;28;20037;-64
2021/01/22 08:59:13;;;;;;;7.05;1.38;;;3.90;99.90;;;;;;5048354;28;20053;-65
2021/01/22 09:09:02;;;;;;;2.40;1.20;;;4.00;99.90;;;;;;5031836;28;20088;-64
2021/01/22 09:12:05;;;;;;;5.22;1.20;;;4.00;99.90;;;;;;5035256;28;20033;-64
2021/01/22 09:19:01;;;;;;;6.65;1.17;;;4.00;99.90;;;;;;5048937;28;20530;-64
2021/01/22 09:29:07;;;;;;;5.97;1.00;;;4.10;99.90;;;;;;5054860;28;20102;-64
2021/01/22 09:31:33;;;;;;;2.30;1.15;;;4.10;99.90;;;;;;5055183;28;20036;-65
2021/01/22 09:34:06;;;;;;;6.63;1.88;;;4.20;99.90;;;;;;5046186;28;20041;-64
2021/01/22 09:36:32;;;;;;;10.38;1.95;;;4.20;99.90;;;;;;5041350;28;20545;-65
2021/01/22 09:39:08;;;;;;;6.72;1.38;;;4.20;99.90;;;;;;5043403;28;20053;-64
2021/01/22 09:41:40;;;;;;;4.05;1.27;;;4.20;99.90;;;;;;5038697;28;20037;-65
2021/01/22 09:44:44;;;;;;;6.53;2.17;;;4.20;99.90;;;;;;5054780;28;20069;-64
2021/01/22 09:47:14;;;;;;;5.20;1.45;;;4.20;99.90;;;;;;5020887;28;20049;-65
2021/01/22 09:54:03;;;;;;;5.60;0.93;;;4.30;99.90;;;;;;5019878;28;20032;-66
2021/01/22 09:56:38;;;;;;;6.18;1.55;;;4.40;99.90;;;;;;5015589;28;20054;-65
2021/01/22 10:03:00;;;;;;;5.53;1.40;;;4.40;99.90;;;;;;5043823;28;20060;-65
2021/01/22 10:05:45;;;;;;;8.20;1.65;;;4.50;99.90;;;;;;5028707;28;20091;-65
2021/01/22 10:09:03;;;;;;;6.70;1.40;;;4.50;99.90;;;;;;5045680;28;20044;-65
2021/01/22 10:11:39;;;;;;;6.00;1.23;;;4.50;99.90;;;;;;5037944;28;20052;-66
2021/01/22 10:14:07;;;;;;;4.57;1.15;;;4.60;99.90;;;;;;5009650;28;20045;-66
2021/01/22 10:16:33;;;;;;;4.88;1.85;;;4.60;99.90;;;;;;5034240;28;20117;-66
2021/01/22 10:19:03;;;;;;;10.35;1.77;;;4.60;99.90;;;;;;5038436;28;20125;-66
2021/01/22 10:21:36;;;;;;;6.15;1.60;;;4.70;99.90;;;;;;5048775;28;20041;-66
2021/01/22 10:24:03;;;;;;;8.50;1.98;;;4.70;99.90;;;;;;5053768;28;20040;-66
2021/01/22 10:26:31;;;;;;;8.45;1.35;;;4.90;99.90;;;;;;5038589;28;20390;-66
2021/01/22 10:29:05;;;;;;;6.68;1.55;;;4.90;99.90;;;;;;5037786;28;20049;-66
2021/01/22 10:31:32;;;;;;;7.28;1.58;;;5.00;99.90;;;;;;5049981;28;20041;-66
2021/01/22 10:34:04;;;;;;;3.90;1.50;;;5.10;99.90;;;;;;5032992;28;20128;-66
2021/01/22 10:44:05;;;;;;;4.25;1.52;;;5.30;99.90;;;;;;5034001;28;20059;-65
2021/01/22 10:46:37;;;;;;;6.03;1.42;;;5.30;99.90;;;;;;5034457;28;20091;-66
2021/01/22 10:49:03;;;;;;;6.32;1.63;;;5.40;99.90;;;;;;5025989;28;20052;-64
2021/01/22 10:51:41;;;;;;;4.70;1.13;;;5.40;99.90;;;;;;5033810;28;20041;-66
2021/01/22 10:54:34;;;;;;;4.40;1.20;;;5.40;99.90;;;;;;5014739;28;20042;-65
2021/01/22 10:57:00;;;;;;;4.20;2.23;;;5.40;99.90;;;;;;5035787;28;20068;-66
2021/01/22 10:59:51;;;;;;;7.40;2.00;;;5.40;99.90;;;;;;5047671;28;20045;-65
2021/01/22 11:02:58;;;;;;;4.65;1.63;;;5.40;99.90;;;;;;5041554;28;20041;-65
2021/01/22 11:09:03;;;;;;;6.53;1.42;;;5.60;99.90;;;;;;5047787;28;20041;-65
2021/01/22 11:12:04;;;;;;;6.22;1.40;;;5.70;99.90;;;;;;5014381;28;20037;-64
2021/01/22 11:19:06;;;;;;;5.57;1.40;;;5.90;99.90;;;;;;5053225;28;20040;-65
2021/01/22 11:21:34;;;;;;;7.53;0.98;;;5.90;99.90;;;;;;5053562;28;20112;-66
2021/01/22 11:24:07;;;;;;;9.65;1.50;;;5.90;99.90;;;;;;5033430;28;20046;-66
2021/01/22 11:26:42;;;;;;;4.45;1.25;;;6.00;99.90;;;;;;5044706;28;20037;-65
2021/01/22 11:29:14;;;;;;;3.85;1.25;;;6.00;99.90;;;;;;5034969;28;20440;-64
2021/01/22 11:32:15;;;;;;;5.70;1.08;;;5.90;99.90;;;;;;5051310;28;20068;-65
2021/01/22 11:39:02;;;;;;;4.65;1.60;;;6.00;99.90;;;;;;4973225;28;20061;-67
2021/01/22 11:41:34;;;;;;;9.18;1.65;;;6.10;99.90;;;;;;4924666;29;20079;-64
2021/01/22 11:44:09;;;;;;;8.30;1.80;;;6.10;99.90;;;;;;5051365;28;20076;-65
2021/01/22 11:46:40;;;;;;;5.70;1.33;;;6.20;99.90;;;;;;5051859;28;20041;-65
2021/01/22 11:49:12;;;;;;;4.57;1.00;;;6.20;99.90;;;;;;5050154;28;20037;-65
2021/01/22 11:51:37;;;;;;;7.07;1.90;;;6.20;99.90;;;;;;5045845;28;20037;-65
2021/01/22 11:54:05;;;;;;;7.55;1.67;;;6.20;99.90;;;;;;5055705;28;20099;-65
2021/01/22 12:04:10;;;;;;;7.38;1.30;;;6.10;99.90;;;;;;5064392;28;20542;-65
2021/01/22 12:07:05;;;;;;;9.15;1.33;;;6.20;99.90;;;;;;5063955;28;20037;-65
2021/01/22 12:09:51;;;;;;;4.82;1.33;;;6.20;99.90;;;;;;5043528;28;20055;-65
2021/01/22 12:16:37;;;;;;;5.78;0.82;;;6.30;99.90;;;;;;5070599;28;20035;-65
2021/01/22 12:26:32;;;;;;;11.20;1.50;;;6.40;99.90;;;;;;5079928;28;20036;-65
2021/01/22 12:29:10;;;;;;;8.25;1.40;;;6.40;99.90;;;;;;5079520;28;20578;-65
2021/01/22 12:39:13;;;;;;;8.38;1.63;;;6.40;99.90;;;;;;5070707;28;20090;-66
2021/01/22 12:41:45;;;;;;;8.68;1.38;;;6.40;99.90;;;;;;5068123;28;20472;-65
2021/01/22 12:44:13;;;;;;;8.85;1.23;;;6.50;99.90;;;;;;5068205;28;20514;-65
2021/01/22 12:47:10;;;;;;;7.88;1.42;;;6.50;99.90;;;;;;5060686;28;20413;-66
2021/01/22 12:54:03;;;;;;;10.88;1.60;;;6.60;99.90;;;;;;5063767;28;20039;-65
2021/01/22 12:56:37;;;;;;;5.78;1.02;;;6.60;99.90;;;;;;5035956;28;20090;-66
2021/01/22 12:59:04;;;;;;;9.10;1.27;;;6.50;99.90;;;;;;5065322;28;20051;-64
2021/01/22 13:01:32;;;;;;;10.70;2.22;;;6.60;99.90;;;;;;5071309;28;20060;-66
2021/01/22 13:04:17;;;;;;;6.90;1.02;;;6.60;99.80;;;;;;5050956;28;20040;-65
2021/01/22 13:06:55;;;;;;;8.68;1.48;;;6.60;99.90;;;;;;5065448;28;20041;-66
2021/01/22 13:09:35;;;;;;;7.35;2.45;;;6.50;99.70;;;;;;5059501;28;20120;-65
2021/01/22 13:12:07;;;;;;;12.55;2.45;;;6.50;99.80;;;;;;5059683;28;20050;-65
2021/01/22 13:14:48;;;;;;;5.22;1.85;;;6.50;99.90;;;;;;5037614;28;20075;-65
2021/01/22 13:17:20;;;;;;;9.50;1.73;;;6.50;99.90;;;;;;5067888;28;20051;-65
2021/01/22 13:24:04;;;;;;;3.80;1.02;;;6.40;99.90;;;;;;5055137;28;20031;-65
2021/01/22 13:26:32;;;;;;;3.85;1.23;;;6.50;99.90;;;;;;5064278;28;20051;-66
2021/01/22 13:29:04;;;;;;;7.00;1.05;;;6.50;99.90;;;;;;5017547;28;20045;-65
2021/01/22 13:31:32;;;;;;;8.75;1.40;;;6.50;99.90;;;;;;5049433;28;20488;-66
2021/01/22 13:33:59;;;;;;;9.13;2.03;;;6.50;99.90;;;;;;5058741;28;20049;-66
2021/01/22 13:36:45;;;;;;;8.63;1.10;;;6.50;99.90;;;;;;5074929;28;20373;-66
2021/01/22 13:39:42;;;;;;;2.83;1.05;;;6.50;99.90;;;;;;5069711;28;20499;-66
2021/01/22 13:42:09;;;;;;;7.85;1.08;;;6.50;99.90;;;;;;5059359;28;20045;-65
2021/01/22 13:44:41;;;;;;;11.35;1.20;;;6.60;99.90;;;;;;5044171;28;20048;-65
2021/01/22 13:51:32;;;;;;;9.80;1.45;;;6.50;99.90;;;;;;5069055;28;20030;-65
2021/01/22 13:54:04;;;;;;;6.32;1.17;;;6.50;99.90;;;;;;5057902;28;20450;-66
2021/01/22 13:56:32;;;;;;;6.00;1.33;;;6.50;99.90;;;;;;5065361;28;20396;-65
2021/01/22 13:59:05;;;;;;;4.45;0.90;;;6.50;99.90;;;;;;5059109;28;20040;-66
2021/01/22 14:01:32;;;;;;;6.72;1.10;;;6.50;99.90;;;;;;5033909;28;20063;-65
2021/01/22 14:04:18;;;;;;;7.22;1.65;;;6.50;99.90;;;;;;5045526;28;20040;-66
2021/01/22 14:07:08;;;;;;;3.88;1.10;;;6.50;99.90;;;;;;5036171;28;20046;-65
2021/01/22 14:09:51;;;;;;;7.10;1.20;;;6.50;99.90;;;;;;5034675;28;20041;-66
2021/01/22 14:16:32;;;;;;;4.00;1.02;;;6.50;99.90;;;;;;5034034;28;20515;-65
2021/01/22 14:19:03;;;;;;;7.20;1.02;;;6.50;99.90;;;;;;5040714;28;20102;-66
2021/01/22 14:21:35;;;;;;;9.15;1.70;;;6.40;99.90;;;;;;5049081;28;20431;-66
2021/01/22 14:24:02;;;;;;;7.18;1.30;;;6.40;99.90;;;;;;5031893;28;20496;-66
2021/01/22 14:26:34;;;;;;;7.13;1.30;;;6.40;99.90;;;;;;5048135;28;20041;-66
2021/01/22 14:29:07;;;;;;;8.57;1.60;;;6.40;99.90;;;;;;5029862;28;20103;-66
2021/01/22 14:31:38;;;;;;;6.35;1.88;;;6.40;99.90;;;;;;5014313;28;20042;-66
2021/01/22 14:38:06;;;;;;;6.50;1.65;;;6.40;99.90;;;;;;5047257;28;20044;-65
2021/01/22 14:44:04;;;;;;;5.40;1.25;;;6.40;99.90;;;;;;5028342;28;20071;-66
2021/01/22 14:46:35;;;;;;;3.97;1.10;;;6.40;99.90;;;;;;5038166;28;20477;-66
2021/01/22 14:49:03;;;;;;;5.20;1.10;;;6.40;99.90;;;;;;5026764;28;20072;-66
2021/01/22 14:51:34;;;;;;;11.40;1.85;;;6.40;99.90;;;;;;5041287;28;20032;-66
2021/01/22 14:54:39;;;;;;;5.47;1.35;;;6.30;99.90;;;;;;5033729;28;20073;-65
2021/01/22 14:57:24;;;;;;;;;;;6.30;99.90;;;;;;5021714;28;20041;-66
2021/01/22 14:59:49;;;;;;;2.75;0.93;;;6.30;99.90;;;;;;5050074;28;19927;-66
2021/01/22 15:02:41;;;;;;;5.93;1.60;;;6.20;99.90;;;;;;5021489;28;20037;-66
2021/01/22 15:05:15;;;;;;;9.05;2.00;;;6.10;99.90;;;;;;5055948;28;20045;-66
2021/01/22 15:19:05;;;;;;;14.82;1.88;;;5.90;99.90;;;;;;5067433;28;20081;-65
2021/01/22 15:21:37;;;;;;;8.70;2.05;;;6.00;99.70;;;;;;5063206;28;20051;-66
2021/01/22 15:24:17;;;;;;;9.55;1.38;;;5.90;99.90;;;;;;5056661;28;20041;-66
2021/01/22 15:26:48;;;;;;;5.68;1.10;;;5.90;99.90;;;;;;5069004;28;20044;-65
2021/01/22 15:29:47;;;;;;;8.45;1.48;;;5.90;99.70;;;;;;5060392;28;20064;-66
2021/01/22 15:32:22;;;;;;;4.22;1.17;;;5.90;99.90;;;;;;5043553;28;20498;-65
2021/01/22 15:34:53;;;;;;;8.10;1.58;;;5.80;99.80;;;;;;5065047;28;20075;-65
2021/01/22 15:41:36;;;;;;;5.90;1.08;;;5.80;99.90;;;;;;5032904;28;20090;-66
2021/01/22 15:44:11;;;;;;;4.70;1.00;;;5.80;99.90;;;;;;5015803;28;20473;-65
2021/01/22 15:46:39;;;;;;;4.80;0.95;;;5.70;99.90;;;;;;5049294;28;20546;-65
2021/01/22 15:49:07;;;;;;;9.40;1.30;;;5.70;99.90;;;;;;5062473;28;20044;-65
2021/01/22 15:52:07;;;;;;;9.00;1.38;;;5.70;99.90;;;;;;5065140;28;20111;-66
2021/01/22 15:54:45;;;;;;;5.78;1.55;;;5.60;99.90;;;;;;5035174;28;20114;-65
2021/01/22 15:57:14;;;;;;;5.63;1.25;;;5.60;99.90;;;;;;5037648;28;20546;-64
2021/01/22 16:04:00;;;;;;;6.28;1.20;;;5.60;99.90;;;;;;5040457;28;20476;-64
2021/01/22 16:06:38;;;;;;;7.05;1.20;;;5.60;99.90;;;;;;5040079;28;20044;-65
2021/01/22 16:09:12;;;;;;;6.88;2.28;;;5.60;99.90;;;;;;5037211;28;20053;-65
2021/01/22 16:11:41;;;;;;;10.57;2.47;;;5.50;99.90;;;;;;5048311;28;20041;-66
2021/01/22 16:14:13;;;;;;;7.03;1.90;;;5.60;99.90;;;;;;5037212;28;20075;-65
2021/01/22 16:16:41;;;;;;;5.50;1.35;;;5.50;99.90;;;;;;5041180;28;20041;-65
2021/01/22 16:26:35;;;;;;;7.07;1.88;;;5.50;99.90;;;;;;5045615;28;20155;-65
2021/01/22 16:29:07;;;;;;;9.32;2.20;;;5.50;99.90;;;;;;5045765;28;20053;-65
2021/01/22 16:31:39;;;;;;;8.02;2.10;;;5.40;99.90;;;;;;5051751;28;20040;-65
2021/01/22 16:34:05;;;;;;;11.55;2.60;;;5.40;99.90;;;;;;5050694;28;20476;-65
2021/01/22 16:36:35;;;;;;;8.80;2.60;;;5.40;99.90;;;;;;5036307;28;20046;-66
2021/01/22 16:39:07;;;;;;;4.32;1.40;;;5.40;99.90;;;;;;5040425;28;20147;-66
2021/01/22 16:41:37;;;;;;;5.13;1.23;;;5.30;99.90;;;;;;5051262;28;20047;-66
2021/01/22 16:44:06;;;;;;;7.32;1.77;;;5.30;99.90;;;;;;5040673;28;20124;-66
2021/01/22 16:46:37;;;;;;;6.10;1.33;;;5.30;99.90;;;;;;5037081;28;20092;-65
2021/01/22 16:56:37;;;;;;;8.63;1.45;;;5.20;99.90;;;;;;5039440;28;20481;-65
2021/01/22 16:59:10;;;;;;;2.67;0.70;;;5.10;99.90;;;;;;5046288;28;20044;-65
2021/01/22 17:01:42;;;;;;;2.72;1.02;;;5.10;99.90;;;;;;5051413;28;20480;-65
2021/01/22 17:04:32;;;;;;;4.88;1.48;;;5.10;99.90;;;;;;5043492;28;20046;-65
2021/01/22 17:07:05;;;;;;;10.45;1.90;;;5.00;99.90;;;;;;5038660;28;20041;-65
2021/01/22 17:09:37;;;;;;;3.47;1.15;;;5.00;99.90;;;;;;5042226;28;20041;-65
2021/01/22 17:12:17;;;;;;;4.22;0.88;;;4.90;99.90;;;;;;5055413;28;20037;-65
2021/01/22 17:14:49;;;;;;;4.05;0.90;;;5.00;99.90;;;;;;5021040;28;20057;-65
2021/01/22 17:17:15;;;;;;;5.60;1.13;;;4.90;99.90;;;;;;5026421;28;20056;-65
2021/01/22 17:24:05;;;;;;;5.93;0.95;;;4.80;99.90;;;;;;5045802;28;20040;-65
2021/01/22 17:26:45;;;;;;;4.57;1.08;;;4.80;99.90;;;;;;5015661;28;20042;-65
2021/01/22 17:29:18;;;;;;;3.90;1.20;;;4.80;99.90;;;;;;5044231;28;20113;-64
2021/01/22 17:32:14;;;;;;;6.55;1.13;;;4.90;99.90;;;;;;5054305;28;20079;-65
2021/01/22 17:39:09;;;;;;;4.63;0.75;;;4.70;99.90;;;;;;5039919;28;20045;-65
2021/01/22 17:41:47;;;;;;;2.53;0.90;;;4.70;99.90;;;;;;5035159;28;20045;-65
2021/01/22 17:44:15;;;;;;;3.13;0.80;;;4.60;99.90;;;;;;5050450;28;20314;-65
2021/01/22 17:46:43;;;;;;;6.55;1.40;;;4.70;99.90;;;;;;5039011;28;20068;-65
2021/01/22 17:49:12;;;;;;;8.80;2.90;;;4.70;99.90;;;;;;5050476;28;20033;-65
2021/01/22 17:51:43;;;;;;;10.48;4.22;;;4.70;99.90;;;;;;5039726;28;20042;-65
2021/01/22 17:54:45;;;;;;;11.65;3.65;;;4.60;99.90;;;;;;5034707;28;20044;-65
2021/01/22 18:01:41;;;;;;;3.28;1.40;;;4.60;99.90;;;;;;5043199;28;20039;-65
2021/01/22 18:04:14;;;;;;;3.90;0.98;;;4.50;99.90;;;;;;5024425;28;20045;-65
2021/01/22 18:06:40;;;;;;;3.83;1.10;;;4.40;99.90;;;;;;5046109;28;20599;-65
2021/01/22 18:16:38;;;;;;;6.50;0.93;;;4.30;99.90;;;;;;5049982;28;20483;-65
2021/01/22 18:19:10;;;;;;;6.68;0.98;;;4.30;99.90;;;;;;5044504;28;20045;-65
2021/01/22 18:21:39;;;;;;;7.93;1.20;;;4.20;99.90;;;;;;5051716;28;20456;-65
2021/01/22 18:31:38;;;;;;;2.85;0.85;;;4.00;99.90;;;;;;5041871;28;20594;-65
2021/01/22 18:34:10;;;;;;;4.22;1.30;;;4.00;99.90;;;;;;5013943;28;20064;-65
2021/01/22 18:36:42;;;;;;;4.78;1.10;;;4.00;99.90;;;;;;5039814;28;20044;-65
2021/01/22 18:39:09;;;;;;;4.50;1.35;;;4.00;99.90;;;;;;5014154;28;20405;-65
2021/01/22 18:41:47;;;;;;;3.47;1.48;;;3.90;99.90;;;;;;5040274;28;20060;-65
2021/01/22 18:44:19;;;;;;;6.25;1.38;;;3.90;99.90;;;;;;5014413;28;20045;-65
2021/01/22 18:46:46;;;;;;;4.20;1.08;;;3.90;99.90;;;;;;5025082;28;20428;-64
2021/01/22 18:49:18;;;;;;;5.10;1.25;;;3.90;99.90;;;;;;5038327;28;20123;-64
2021/01/22 18:51:50;;;;;;;4.38;1.30;;;3.90;99.90;;;;;;5049048;28;20163;-65
2021/01/22 18:54:22;;;;;;;3.10;1.10;;;3.80;99.90;;;;;;5050577;28;20060;-64
2021/01/22 18:56:47;;;;;;;7.90;1.23;;;3.80;99.90;;;;;;5033611;28;20052;-65
2021/01/22 18:59:15;;;;;;;5.75;1.33;;;3.80;99.90;;;;;;5034012;28;20053;-64
2021/01/22 19:01:44;;;;;;;2.92;1.02;;;3.80;99.90;;;;;;5034067;28;20048;-65
2021/01/22 19:04:11;;;;;;;5.80;1.08;;;3.70;99.90;;;;;;5047211;28;20139;-65
2021/01/22 19:06:45;;;;;;;8.43;1.70;;;3.70;99.90;;;;;;5051354;28;20037;-64
2021/01/22 19:09:16;;;;;;;3.13;0.93;;;3.70;99.90;;;;;;5033541;28;20135;-65
2021/01/22 19:11:47;;;;;;;3.97;1.00;;;3.70;99.90;;;;;;5064452;28;20036;-65
2021/01/22 19:14:15;;;;;;;4.32;1.30;;;3.70;99.90;;;;;;5073061;28;20041;-63
2021/01/22 19:16:43;;;;;;;4.10;1.42;;;3.70;99.90;;;;;;5053709;28;20053;-65
2021/01/22 19:19:16;;;;;;;3.80;1.15;;;3.70;99.90;;;;;;5053513;28;20194;-65
2021/01/22 19:21:48;;;;;;;4.80;1.20;;;3.70;99.90;;;;;;5067255;28;20097;-64
2021/01/22 19:24:17;;;;;;;10.50;1.80;;;3.60;99.90;;;;;;5055331;28;20052;-64